Time;durP1;ratioP1;P1;durP2;ratioP2;P2;SDS_P1;SDS_P2;PMS_P1;PMS_P2;Temp;Humidity;BMP_temperature;BMP_pressure;BME280_temperature;BME280_humidity;BME280_pressure;Samples;Min_cycle;Max_cycle;Signal;HPM_P1;HPM_P2
2021/04/21 00:02:25;;;;;;;22.67;20.67;;;;;;;;;;4970229;28;20604;-43
2021/04/21 00:04:50;;;;;;;20.77;18.97;;;;;;;;;;4968968;28;20643;-42
2021/04/21 00:07:20;;;;;;;22.23;20.13;;;;;;;;;;4972112;28;20207;-42
2021/04/21 00:09:46;;;;;;;22.00;19.80;;;;;;;;;;4967249;28;20185;-42
2021/04/21 00:12:11;;;;;;;20.63;18.90;;;;;;;;;;4968917;28;20698;-42
2021/04/21 00:14:36;;;;;;;20.50;18.70;;;;;;;;;;4975864;28;20606;-42
2021/04/21 00:17:02;;;;;;;21.00;19.00;;;;;;;;;;4976884;28;20201;-43
2021/04/21 00:19:28;;;;;;;20.87;19.03;;;;;;;;;;4968675;28;20228;-42
2021/04/21 00:21:55;;;;;;;20.67;18.77;;;;;;;;;;4973557;28;20247;-42
2021/04/21 00:24:20;;;;;;;20.90;19.10;;;;;;;;;;4968860;28;20946;-42
2021/04/21 00:26:47;;;;;;;19.10;17.40;;;;;;;;;;4974205;28;20597;-42
2021/04/21 00:29:14;;;;;;;20.40;18.60;;;;;;;;;;4969517;28;20188;-43
2021/04/21 00:31:39;;;;;;;19.50;17.80;;;;;;;;;;4975502;28;20601;-43
2021/04/21 00:34:06;;;;;;;20.70;18.80;;;;;;;;;;4968618;28;20631;-42
2021/04/21 00:36:33;;;;;;;19.73;17.83;;;;;;;;;;4967011;28;20587;-42
2021/04/21 00:38:58;;;;;;;21.17;19.27;;;;;;;;;;4969404;28;20603;-42
2021/04/21 00:41:24;;;;;;;20.70;19.00;;;;;;;;;;4968505;28;20609;-42
2021/04/21 00:43:52;;;;;;;19.80;18.20;;;;;;;;;;4972130;28;20203;-42
2021/04/21 00:46:28;;;;;;;20.00;18.20;;;;;;;;;;4954895;28;20220;-43
2021/04/21 00:49:14;;;;;;;19.30;17.50;;;;;;;;;;4969379;28;20657;-42
2021/04/21 00:51:58;;;;;;;19.10;17.57;;;;;;;;;;4976340;28;20659;-42
2021/04/21 00:54:43;;;;;;;20.43;18.33;;;;;;;;;;4968717;28;20608;-42
2021/04/21 00:57:16;;;;;;;20.33;18.43;;;;;;;;;;4968767;28;20711;-42
2021/04/21 01:00:00;;;;;;;21.07;19.03;;;;;;;;;;4964001;28;21187;-42
2021/04/21 01:02:29;;;;;;;21.57;19.67;;;;;;;;;;4968147;28;20604;-42
2021/04/21 01:04:56;;;;;;;22.47;20.17;;;;;;;;;;4970948;28;20619;-42
2021/04/21 01:07:21;;;;;;;21.57;19.63;;;;;;;;;;4972027;28;20606;-42
2021/04/21 01:09:49;;;;;;;21.30;19.40;;;;;;;;;;4970243;28;20602;-42
2021/04/21 01:12:16;;;;;;;22.20;20.20;;;;;;;;;;4974742;28;20277;-42
2021/04/21 01:14:43;;;;;;;22.30;20.30;;;;;;;;;;4973172;28;20598;-42
2021/04/21 01:17:10;;;;;;;23.53;21.30;;;;;;;;;;4983987;28;20692;-42
2021/04/21 01:19:54;;;;;;;23.03;20.83;;;;;;;;;;4974485;28;20598;-42
2021/04/21 01:22:24;;;;;;;22.70;20.70;;;;;;;;;;4970870;28;21143;-42
2021/04/21 01:24:51;;;;;;;21.00;19.03;;;;;;;;;;4971376;28;20603;-42
2021/04/21 01:27:18;;;;;;;20.93;19.03;;;;;;;;;;4973263;28;20631;-42
2021/04/21 01:29:45;;;;;;;21.87;19.93;;;;;;;;;;4978179;28;20629;-42
2021/04/21 01:32:13;;;;;;;21.90;19.80;;;;;;;;;;4971787;28;21027;-42
2021/04/21 01:34:39;;;;;;;22.53;20.53;;;;;;;;;;4974239;28;20599;-42
2021/04/21 01:37:05;;;;;;;21.33;19.40;;;;;;;;;;4977900;28;20722;-42
2021/04/21 01:39:35;;;;;;;20.00;18.17;;;;;;;;;;4976354;28;20688;-42
2021/04/21 01:42:00;;;;;;;20.20;18.40;;;;;;;;;;4975073;28;20958;-42
2021/04/21 01:44:29;;;;;;;21.10;19.17;;;;;;;;;;4973000;28;20595;-43
2021/04/21 01:47:02;;;;;;;20.77;18.97;;;;;;;;;;4972888;28;20247;-42
2021/04/21 01:49:36;;;;;;;21.10;19.20;;;;;;;;;;4972145;28;20706;-41
2021/04/21 01:52:14;;;;;;;21.23;19.23;;;;;;;;;;4970978;28;20644;-42
2021/04/21 01:54:41;;;;;;;21.50;19.50;;;;;;;;;;4974907;28;20601;-42
2021/04/21 01:57:27;;;;;;;20.50;18.60;;;;;;;;;;4973970;28;20650;-42
2021/04/21 02:00:00;;;;;;;19.80;18.00;;;;;;;;;;4971104;28;20661;-42
2021/04/21 02:02:30;;;;;;;20.30;18.50;;;;;;;;;;4972046;28;20973;-42
2021/04/21 02:05:01;;;;;;;20.50;18.73;;;;;;;;;;4971680;28;20590;-42
2021/04/21 02:07:39;;;;;;;21.30;19.30;;;;;;;;;;4970956;28;20617;-41
2021/04/21 02:10:04;;;;;;;21.07;19.27;;;;;;;;;;4970442;28;20631;-42
2021/04/21 02:12:38;;;;;;;22.33;20.23;;;;;;;;;;4970943;28;20630;-41
2021/04/21 02:15:04;;;;;;;20.90;19.00;;;;;;;;;;4970871;28;20603;-41
2021/04/21 02:17:42;;;;;;;24.70;22.40;;;;;;;;;;4973405;28;21059;-42
2021/04/21 02:20:33;;;;;;;21.30;19.30;;;;;;;;;;4965851;28;20593;-41
2021/04/21 02:23:06;;;;;;;22.27;20.10;;;;;;;;;;4975075;28;20619;-41
2021/04/21 02:25:38;;;;;;;22.77;20.57;;;;;;;;;;4978477;28;20590;-42
2021/04/21 02:28:06;;;;;;;21.53;19.63;;;;;;;;;;4972618;28;20704;-42
2021/04/21 02:30:35;;;;;;;22.90;20.60;;;;;;;;;;4971751;28;20648;-42
2021/04/21 02:33:13;;;;;;;23.13;20.93;;;;;;;;;;4974661;28;20599;-42
2021/04/21 02:35:43;;;;;;;21.37;19.40;;;;;;;;;;4978187;28;20666;-42
2021/04/21 02:38:17;;;;;;;21.30;19.30;;;;;;;;;;4976171;28;20736;-42
2021/04/21 02:40:48;;;;;;;21.20;19.30;;;;;;;;;;4971077;28;21210;-42
2021/04/21 02:43:17;;;;;;;20.80;18.90;;;;;;;;;;4973933;28;20603;-42
2021/04/21 02:46:01;;;;;;;21.83;19.73;;;;;;;;;;4974572;28;20609;-42
2021/04/21 02:48:29;;;;;;;21.33;19.37;;;;;;;;;;4978131;28;20614;-42
2021/04/21 02:51:07;;;;;;;21.60;19.50;;;;;;;;;;4971021;28;20611;-42
2021/04/21 02:53:51;;;;;;;22.30;20.40;;;;;;;;;;4970817;28;20602;-42
2021/04/21 02:56:28;;;;;;;22.33;20.10;;;;;;;;;;4968156;28;20695;-43
2021/04/21 02:59:08;;;;;;;23.70;21.43;;;;;;;;;;4971083;28;20605;-43
2021/04/21 03:01:43;;;;;;;22.97;20.77;;;;;;;;;;4970586;28;20605;-43
2021/04/21 03:04:19;;;;;;;23.60;21.30;;;;;;;;;;4969515;28;20673;-42
2021/04/21 03:06:48;;;;;;;23.03;20.60;;;;;;;;;;4972693;28;21328;-42
2021/04/21 03:09:15;;;;;;;21.47;19.37;;;;;;;;;;4970505;28;20690;-42
2021/04/21 03:11:41;;;;;;;22.63;20.43;;;;;;;;;;4971964;28;20631;-42
2021/04/21 03:14:20;;;;;;;24.00;21.70;;;;;;;;;;4970052;28;20604;-42
2021/04/21 03:16:48;;;;;;;23.47;20.97;;;;;;;;;;4965079;28;20637;-42
2021/04/21 03:19:14;;;;;;;22.93;20.63;;;;;;;;;;4966471;28;20596;-42
2021/04/21 03:21:42;;;;;;;23.20;20.83;;;;;;;;;;4973698;28;20590;-41
2021/04/21 03:24:09;;;;;;;22.97;20.77;;;;;;;;;;4965730;28;21183;-42
2021/04/21 03:26:36;;;;;;;22.57;20.47;;;;;;;;;;4972508;28;21236;-41
2021/04/21 03:29:02;;;;;;;20.63;18.73;;;;;;;;;;4971053;28;20609;-41
2021/04/21 03:31:30;;;;;;;20.93;18.93;;;;;;;;;;4967667;28;20672;-43
2021/04/21 03:33:56;;;;;;;25.03;22.43;;;;;;;;;;4974051;28;20708;-42
2021/04/21 03:36:22;;;;;;;24.13;21.70;;;;;;;;;;4978486;28;20755;-42
2021/04/21 03:38:48;;;;;;;23.60;21.10;;;;;;;;;;4965313;28;20612;-41
2021/04/21 03:41:14;;;;;;;21.53;19.53;;;;;;;;;;4976618;28;20601;-41
2021/04/21 03:43:41;;;;;;;22.10;20.10;;;;;;;;;;4970144;28;20184;-43
2021/04/21 03:46:07;;;;;;;20.40;18.60;;;;;;;;;;4970274;28;20641;-43
2021/04/21 03:48:32;;;;;;;22.77;20.53;;;;;;;;;;4968029;28;21215;-42
2021/04/21 03:50:58;;;;;;;22.03;20.03;;;;;;;;;;4974161;28;20675;-42
2021/04/21 03:53:25;;;;;;;26.60;23.90;;;;;;;;;;4977303;28;20192;-42
2021/04/21 03:55:53;;;;;;;21.27;19.20;;;;;;;;;;4970219;28;20191;-42
2021/04/21 03:58:20;;;;;;;20.73;18.67;;;;;;;;;;4971165;28;20708;-43
2021/04/21 04:00:49;;;;;;;22.13;20.03;;;;;;;;;;4978653;28;20599;-42
2021/04/21 04:03:15;;;;;;;20.83;18.93;;;;;;;;;;4969393;28;20664;-42
2021/04/21 04:06:02;;;;;;;22.17;19.83;;;;;;;;;;4968944;28;20598;-43
2021/04/21 04:08:30;;;;;;;21.30;19.33;;;;;;;;;;4969107;28;20604;-43
2021/04/21 04:10:57;;;;;;;22.53;20.43;;;;;;;;;;4975210;28;20628;-42
2021/04/21 04:13:24;;;;;;;21.90;19.80;;;;;;;;;;4968350;28;20688;-44
2021/04/21 04:15:50;;;;;;;23.47;21.17;;;;;;;;;;4968662;28;21265;-43
2021/04/21 04:18:15;;;;;;;23.50;21.03;;;;;;;;;;4968185;28;20671;-42
2021/04/21 04:20:41;;;;;;;21.73;19.73;;;;;;;;;;4974507;28;20179;-42
2021/04/21 04:23:08;;;;;;;23.43;21.23;;;;;;;;;;4979287;28;20170;-42
2021/04/21 04:25:36;;;;;;;21.40;19.50;;;;;;;;;;4966348;28;20613;-43
2021/04/21 04:28:02;;;;;;;22.40;20.33;;;;;;;;;;4967625;28;20653;-43
2021/04/21 04:30:27;;;;;;;20.67;18.73;;;;;;;;;;4960510;28;20613;-43
2021/04/21 04:32:54;;;;;;;20.67;18.77;;;;;;;;;;4968182;28;20190;-43
2021/04/21 04:35:19;;;;;;;19.80;18.00;;;;;;;;;;4963702;28;20208;-43
2021/04/21 04:37:44;;;;;;;20.83;18.83;;;;;;;;;;4963448;28;20672;-43
2021/04/21 04:40:12;;;;;;;23.60;21.30;;;;;;;;;;4964267;28;20230;-42
2021/04/21 04:42:37;;;;;;;22.77;20.70;;;;;;;;;;4969394;28;20189;-42
2021/04/21 04:45:03;;;;;;;21.00;19.10;;;;;;;;;;4969280;28;20595;-42
2021/04/21 04:47:29;;;;;;;20.60;18.70;;;;;;;;;;4968682;28;20245;-42
2021/04/21 04:49:56;;;;;;;21.47;19.47;;;;;;;;;;4972952;28;20185;-42
2021/04/21 04:52:22;;;;;;;21.73;19.63;;;;;;;;;;4981276;28;20607;-42
2021/04/21 04:54:49;;;;;;;20.23;18.33;;;;;;;;;;4970904;28;20700;-42
2021/04/21 04:57:17;;;;;;;20.50;18.60;;;;;;;;;;4974282;28;20264;-42
2021/04/21 04:59:44;;;;;;;20.57;18.73;;;;;;;;;;4974030;28;20960;-42
2021/04/21 05:02:13;;;;;;;19.70;17.90;;;;;;;;;;4978472;28;20632;-43
2021/04/21 05:04:43;;;;;;;18.27;16.67;;;;;;;;;;4974899;28;21044;-42
2021/04/21 05:07:12;;;;;;;19.13;17.43;;;;;;;;;;4969533;28;21193;-42
2021/04/21 05:09:42;;;;;;;18.83;17.07;;;;;;;;;;4971539;28;20622;-42
2021/04/21 05:12:11;;;;;;;18.30;16.70;;;;;;;;;;4981040;28;20658;-42
2021/04/21 05:14:37;;;;;;;17.03;15.43;;;;;;;;;;4989608;28;20587;-42
2021/04/21 05:17:21;;;;;;;16.67;15.27;;;;;;;;;;4971879;28;20650;-42
2021/04/21 05:20:09;;;;;;;17.37;15.87;;;;;;;;;;4977823;28;20771;-42
2021/04/21 05:23:01;;;;;;;15.77;14.37;;;;;;;;;;4980742;28;20601;-43
2021/04/21 05:25:45;;;;;;;16.10;14.60;;;;;;;;;;4975150;28;20614;-43
2021/04/21 05:28:25;;;;;;;16.30;14.90;;;;;;;;;;4969358;28;20612;-43
2021/04/21 05:30:50;;;;;;;16.27;14.97;;;;;;;;;;4971752;28;20609;-42
2021/04/21 05:33:19;;;;;;;17.20;15.50;;;;;;;;;;4970869;28;20610;-45
2021/04/21 05:35:54;;;;;;;16.70;15.10;;;;;;;;;;4971289;28;20603;-42
2021/04/21 05:38:47;;;;;;;16.90;15.27;;;;;;;;;;4970683;28;20663;-42
2021/04/21 05:41:30;;;;;;;18.10;16.50;;;;;;;;;;4971086;28;20617;-42
2021/04/21 05:44:14;;;;;;;17.70;16.27;;;;;;;;;;4971465;28;20578;-42
2021/04/21 05:46:58;;;;;;;17.87;16.27;;;;;;;;;;4971197;28;21143;-42
2021/04/21 05:49:32;;;;;;;19.07;17.33;;;;;;;;;;4971323;28;20596;-41
2021/04/21 05:52:06;;;;;;;16.50;15.00;;;;;;;;;;4971092;28;20570;-42
2021/04/21 05:54:44;;;;;;;18.77;17.07;;;;;;;;;;4974960;28;20957;-43
2021/04/21 05:57:36;;;;;;;17.20;15.70;;;;;;;;;;4976319;28;20682;-43
2021/04/21 06:00:20;;;;;;;17.30;15.80;;;;;;;;;;4974308;28;20972;-43
2021/04/21 06:02:47;;;;;;;17.83;16.13;;;;;;;;;;4967610;28;20602;-42
2021/04/21 06:05:13;;;;;;;18.30;16.70;;;;;;;;;;4973158;28;20609;-42
2021/04/21 06:07:38;;;;;;;19.10;17.30;;;;;;;;;;4968131;28;20596;-42
2021/04/21 06:10:25;;;;;;;18.37;16.67;;;;;;;;;;4974739;28;20705;-42
2021/04/21 06:12:51;;;;;;;17.67;16.17;;;;;;;;;;4955807;28;20186;-42
2021/04/21 06:15:21;;;;;;;17.93;16.40;;;;;;;;;;4967785;28;20576;-42
2021/04/21 06:17:46;;;;;;;17.07;15.63;;;;;;;;;;4967199;28;20720;-42
2021/04/21 06:20:15;;;;;;;17.95;16.20;;;;;;;;;;4966497;28;20613;-43
2021/04/21 06:22:40;;;;;;;19.23;17.60;;;;;;;;;;4977848;28;20198;-43
2021/04/21 06:25:12;;;;;;;18.95;17.15;;;;;;;;;;4967636;28;20641;-42
2021/04/21 06:27:37;;;;;;;17.60;16.20;;;;;;;;;;4967761;28;20747;-42
2021/04/21 06:30:04;;;;;;;18.80;17.10;;;;;;;;;;4967690;28;20601;-43
2021/04/21 06:32:29;;;;;;;18.80;17.00;;;;;;;;;;4965457;28;20606;-42
2021/04/21 06:35:07;;;;;;;19.40;17.55;;;;;;;;;;4966901;28;21068;-43
2021/04/21 06:37:34;;;;;;;18.20;16.60;;;;;;;;;;4966599;28;20233;-46
2021/04/21 06:40:06;;;;;;;21.43;19.43;;;;;;;;;;4966281;28;21076;-42
2021/04/21 06:42:32;;;;;;;19.60;17.90;;;;;;;;;;4965956;28;20614;-44
2021/04/21 06:44:58;;;;;;;20.40;18.70;;;;;;;;;;4966515;28;20594;-43
2021/04/21 06:47:27;;;;;;;21.70;19.83;;;;;;;;;;4970286;28;21159;-42
2021/04/21 06:49:58;;;;;;;21.50;19.77;;;;;;;;;;4967565;28;20182;-42
2021/04/21 06:52:31;;;;;;;21.83;19.77;;;;;;;;;;4978662;28;21152;-42
2021/04/21 06:55:02;;;;;;;20.53;18.77;;;;;;;;;;4963723;28;20661;-42
2021/04/21 06:57:28;;;;;;;19.80;18.10;;;;;;;;;;4964958;28;21302;-41
2021/04/21 07:00:07;;;;;;;21.77;19.97;;;;;;;;;;4966733;28;20604;-42
2021/04/21 07:02:39;;;;;;;21.10;19.20;;;;;;;;;;4968109;28;20450;-42
2021/04/21 07:05:06;;;;;;;19.20;17.60;;;;;;;;;;4972726;28;20720;-43
2021/04/21 07:07:32;;;;;;;19.33;17.70;;;;;;;;;;4969897;28;20599;-42
2021/04/21 07:09:57;;;;;;;19.20;17.60;;;;;;;;;;4971910;28;21155;-42
2021/04/21 07:12:23;;;;;;;21.83;19.57;;;;;;;;;;4968152;28;20657;-42
2021/04/21 07:14:48;;;;;;;19.70;17.60;;;;;;;;;;4968586;28;20187;-42
2021/04/21 07:17:15;;;;;;;19.70;18.00;;;;;;;;;;4968568;28;20208;-42
2021/04/21 07:19:41;;;;;;;21.00;19.23;;;;;;;;;;4969545;28;20211;-42
2021/04/21 07:22:06;;;;;;;19.40;17.70;;;;;;;;;;4969163;28;20977;-42
2021/04/21 07:24:32;;;;;;;18.30;16.50;;;;;;;;;;4969167;28;20271;-42
2021/04/21 07:26:58;;;;;;;18.40;16.73;;;;;;;;;;4969059;28;20180;-42
2021/04/21 07:29:24;;;;;;;19.27;17.37;;;;;;;;;;4969514;28;21165;-43
2021/04/21 07:31:50;;;;;;;18.47;16.77;;;;;;;;;;4968878;28;20701;-42
2021/04/21 07:34:25;;;;;;;17.23;15.73;;;;;;;;;;4969000;28;20690;-43
2021/04/21 07:36:51;;;;;;;18.37;16.70;;;;;;;;;;4969270;28;20208;-42
2021/04/21 07:39:16;;;;;;;17.97;16.37;;;;;;;;;;4968431;28;20675;-43
2021/04/21 07:41:46;;;;;;;17.30;15.73;;;;;;;;;;4968277;28;20260;-43
2021/04/21 07:44:30;;;;;;;17.27;15.67;;;;;;;;;;4967659;28;20173;-43
2021/04/21 07:47:07;;;;;;;16.60;15.00;;;;;;;;;;4968060;28;20608;-42
2021/04/21 07:49:36;;;;;;;16.70;15.40;;;;;;;;;;4968277;28;20595;-43
2021/04/21 07:52:02;;;;;;;17.10;15.37;;;;;;;;;;4968268;28;21132;-43
2021/04/21 07:54:28;;;;;;;16.60;15.03;;;;;;;;;;4967837;28;20636;-43
2021/04/21 07:57:06;;;;;;;17.80;15.33;;;;;;;;;;4967974;28;20216;-43
2021/04/21 07:59:31;;;;;;;17.33;15.50;;;;;;;;;;4967592;28;20651;-43
2021/04/21 08:02:01;;;;;;;16.33;14.87;;;;;;;;;;4967585;28;20567;-42
2021/04/21 08:04:27;;;;;;;16.00;14.60;;;;;;;;;;4967788;28;20233;-41
2021/04/21 08:06:53;;;;;;;16.83;15.33;;;;;;;;;;4967790;28;20584;-42
2021/04/21 08:09:19;;;;;;;17.30;15.60;;;;;;;;;;4967553;28;20580;-43
2021/04/21 08:11:44;;;;;;;16.93;15.53;;;;;;;;;;4967149;28;20606;-43
2021/04/21 08:14:10;;;;;;;17.60;15.90;;;;;;;;;;4967840;28;20231;-43
2021/04/21 08:16:36;;;;;;;18.17;16.60;;;;;;;;;;4969574;28;20900;-43
2021/04/21 08:19:12;;;;;;;17.40;15.70;;;;;;;;;;4969384;28;20810;-43
2021/04/21 08:21:41;;;;;;;16.97;15.47;;;;;;;;;;4970933;28;20179;-43
2021/04/21 08:24:07;;;;;;;16.03;14.43;;;;;;;;;;4971281;28;20575;-43
2021/04/21 08:26:33;;;;;;;16.90;15.30;;;;;;;;;;4971100;28;20577;-42
2021/04/21 08:29:01;;;;;;;17.07;15.67;;;;;;;;;;4970747;28;20626;-42
2021/04/21 08:31:27;;;;;;;18.50;16.90;;;;;;;;;;4971290;28;20176;-41
2021/04/21 08:33:52;;;;;;;18.40;16.60;;;;;;;;;;4970890;28;20666;-42
2021/04/21 08:36:19;;;;;;;18.03;16.33;;;;;;;;;;4970641;28;20593;-42
2021/04/21 08:38:44;;;;;;;19.23;17.57;;;;;;;;;;4970342;28;20636;-42
2021/04/21 08:41:10;;;;;;;20.27;18.37;;;;;;;;;;4954470;28;518252;-42
2021/04/21 08:43:36;;;;;;;18.63;17.03;;;;;;;;;;4971897;28;20272;-42
2021/04/21 08:46:02;;;;;;;18.77;17.13;;;;;;;;;;4972247;28;20203;-42
2021/04/21 08:48:28;;;;;;;19.83;17.80;;;;;;;;;;4972142;28;21035;-42
2021/04/21 08:50:53;;;;;;;18.20;16.70;;;;;;;;;;4972014;28;20195;-41
2021/04/21 08:53:20;;;;;;;17.67;16.17;;;;;;;;;;4972081;28;20604;-42
2021/04/21 08:55:48;;;;;;;20.23;18.53;;;;;;;;;;4971843;28;20593;-43
2021/04/21 08:58:13;;;;;;;20.37;18.60;;;;;;;;;;4971519;28;20742;-42
2021/04/21 09:00:39;;;;;;;20.27;18.57;;;;;;;;;;4971846;28;20681;-42
2021/04/21 09:03:04;;;;;;;19.03;17.20;;;;;;;;;;4971643;28;20173;-42
2021/04/21 09:05:30;;;;;;;20.00;18.00;;;;;;;;;;4971589;28;20590;-47
2021/04/21 09:07:55;;;;;;;19.47;17.37;;;;;;;;;;4971500;28;20176;-43
2021/04/21 09:10:20;;;;;;;20.90;18.77;;;;;;;;;;4971829;28;20184;-43
2021/04/21 09:12:46;;;;;;;19.50;17.80;;;;;;;;;;4971546;28;20327;-44
2021/04/21 09:15:12;;;;;;;19.80;18.00;;;;;;;;;;4972127;28;20208;-43
2021/04/21 09:17:46;;;;;;;19.20;17.40;;;;;;;;;;4971054;28;20211;-43
2021/04/21 09:20:12;;;;;;;18.77;17.07;;;;;;;;;;4971798;28;20584;-43
2021/04/21 09:22:58;;;;;;;20.43;16.10;;;;;;;;;;4971318;28;20570;-43
2021/04/21 09:25:23;;;;;;;18.70;17.00;;;;;;;;;;4970608;28;20607;-42
2021/04/21 09:27:53;;;;;;;18.25;16.55;;;;;;;;;;4971401;28;20589;-43
2021/04/21 09:30:20;;;;;;;18.93;17.10;;;;;;;;;;4971348;28;20218;-43
2021/04/21 09:32:52;;;;;;;18.77;17.03;;;;;;;;;;4970777;28;20608;-43
2021/04/21 09:35:22;;;;;;;16.70;15.20;;;;;;;;;;4971059;28;20581;-43
2021/04/21 09:37:47;;;;;;;16.87;15.10;;;;;;;;;;4970804;28;20679;-43
2021/04/21 09:40:13;;;;;;;18.00;16.37;;;;;;;;;;4971367;28;20659;-46
2021/04/21 09:42:38;;;;;;;19.30;17.30;;;;;;;;;;4970470;28;20211;-43
2021/04/21 09:45:04;;;;;;;17.83;16.13;;;;;;;;;;4971015;28;20293;-43
2021/04/21 09:47:30;;;;;;;16.77;15.27;;;;;;;;;;4970870;28;20218;-43
2021/04/21 09:49:55;;;;;;;16.80;12.87;;;;;;;;;;4970981;28;20604;-43
2021/04/21 09:52:21;;;;;;;16.60;14.90;;;;;;;;;;4971013;28;20187;-43
2021/04/21 09:54:47;;;;;;;16.20;14.70;;;;;;;;;;4970492;28;20703;-43
2021/04/21 09:57:19;;;;;;;16.80;15.30;;;;;;;;;;4971219;28;20500;-43
2021/04/21 09:59:55;;;;;;;17.97;16.07;;;;;;;;;;4970486;28;20664;-44
2021/04/21 10:02:39;;;;;;;16.00;14.53;;;;;;;;;;4970770;28;20601;-43
2021/04/21 10:05:21;;;;;;;15.10;13.73;;;;;;;;;;4970953;28;20596;-43
2021/04/21 10:07:46;;;;;;;14.63;13.13;;;;;;;;;;4970379;28;20598;-43
2021/04/21 10:10:11;;;;;;;13.82;12.43;;;;;;;;;;4970714;28;20675;-44
2021/04/21 10:12:36;;;;;;;14.53;13.03;;;;;;;;;;4970046;28;20192;-43
2021/04/21 10:15:09;;;;;;;15.37;13.97;;;;;;;;;;4969156;28;20208;-43
2021/04/21 10:17:39;;;;;;;16.13;14.73;;;;;;;;;;4970083;28;20208;-43
2021/04/21 10:20:06;;;;;;;16.00;14.00;;;;;;;;;;4970360;28;20574;-43
2021/04/21 10:22:31;;;;;;;15.43;14.03;;;;;;;;;;4970117;28;20585;-43
2021/04/21 10:24:57;;;;;;;15.27;14.07;;;;;;;;;;4970258;28;20615;-43
2021/04/21 10:27:22;;;;;;;14.90;13.50;;;;;;;;;;4970287;28;20181;-43
2021/04/21 10:29:48;;;;;;;15.13;13.70;;;;;;;;;;4969884;28;20190;-43
2021/04/21 10:32:16;;;;;;;14.80;13.30;;;;;;;;;;4970323;28;20203;-43
2021/04/21 10:34:44;;;;;;;15.10;13.73;;;;;;;;;;4970437;28;20644;-43
2021/04/21 10:37:11;;;;;;;15.70;14.20;;;;;;;;;;4969263;28;21213;-42
2021/04/21 10:39:37;;;;;;;13.40;12.30;;;;;;;;;;4969748;28;21012;-42
2021/04/21 10:42:02;;;;;;;16.20;14.80;;;;;;;;;;4969935;28;20612;-43
2021/04/21 10:44:31;;;;;;;15.20;14.00;;;;;;;;;;4969253;28;20566;-42
2021/04/21 10:47:00;;;;;;;16.43;14.93;;;;;;;;;;4969938;28;20193;-43
2021/04/21 10:49:44;;;;;;;15.67;14.10;;;;;;;;;;4970021;28;20571;-43
2021/04/21 10:52:09;;;;;;;14.57;13.27;;;;;;;;;;4970146;28;20596;-43
2021/04/21 10:54:35;;;;;;;13.30;11.93;;;;;;;;;;4969647;28;20589;-43
2021/04/21 10:57:19;;;;;;;12.80;11.15;;;;;;;;;;4969829;28;20261;-43
2021/04/21 11:00:02;;;;;;;14.13;12.80;;;;;;;;;;4968996;28;20315;-43
2021/04/21 11:02:39;;;;;;;13.53;12.33;;;;;;;;;;4970146;28;20608;-43
2021/04/21 11:05:07;;;;;;;11.87;10.63;;;;;;;;;;4970348;28;20662;-43
2021/04/21 11:07:33;;;;;;;13.03;11.73;;;;;;;;;;4970076;28;20609;-43
2021/04/21 11:09:58;;;;;;;12.10;11.10;;;;;;;;;;4969874;28;20648;-43
2021/04/21 11:12:42;;;;;;;12.03;11.03;;;;;;;;;;4969994;28;20601;-43
2021/04/21 11:15:08;;;;;;;12.23;11.03;;;;;;;;;;4970051;28;20539;-43
2021/04/21 11:17:53;;;;;;;13.30;11.80;;;;;;;;;;4969598;28;20660;-45
2021/04/21 11:20:49;;;;;;;10.17;9.27;;;;;;;;;;4969649;28;20178;-43
2021/04/21 11:23:33;;;;;;;11.70;10.63;;;;;;;;;;4969743;28;20642;-42
2021/04/21 11:26:17;;;;;;;12.73;10.53;;;;;;;;;;4969544;28;20585;-43
2021/04/21 11:29:00;;;;;;;13.57;10.60;;;;;;;;;;4969242;28;20713;-43
2021/04/21 11:31:40;;;;;;;13.13;9.90;;;;;;;;;;4969744;28;20648;-43
2021/04/21 11:34:17;;;;;;;10.60;9.50;;;;;;;;;;4969097;28;20614;-42
2021/04/21 11:36:48;;;;;;;10.57;8.40;;;;;;;;;;4969173;28;20645;-42
2021/04/21 11:39:13;;;;;;;12.67;10.10;;;;;;;;;;4969639;28;21102;-46
2021/04/21 11:41:39;;;;;;;10.73;8.90;;;;;;;;;;4969194;28;20614;-42
2021/04/21 11:44:04;;;;;;;10.90;9.90;;;;;;;;;;4968984;28;20194;-43
2021/04/21 11:47:05;;;;;;;9.83;8.97;;;;;;;;;;4969695;28;20938;-42
2021/04/21 11:49:51;;;;;;;10.57;9.67;;;;;;;;;;4966838;28;20216;-42
2021/04/21 11:52:39;;;;;;;11.00;9.80;;;;;;;;;;4950696;28;20591;-43
2021/04/21 11:55:04;;;;;;;10.23;9.33;;;;;;;;;;4961406;28;20641;-43
2021/04/21 11:57:29;;;;;;;10.37;9.47;;;;;;;;;;4969479;28;20674;-42
2021/04/21 11:59:54;;;;;;;11.50;10.37;;;;;;;;;;4969195;28;20227;-44
2021/04/21 12:02:20;;;;;;;10.17;9.17;;;;;;;;;;4968550;28;20188;-43
2021/04/21 12:04:49;;;;;;;10.63;9.73;;;;;;;;;;4968603;28;20172;-42
2021/04/21 12:07:18;;;;;;;10.10;9.10;;;;;;;;;;4968883;28;20638;-42
2021/04/21 12:09:44;;;;;;;10.20;9.27;;;;;;;;;;4968352;28;21141;-43
2021/04/21 12:12:10;;;;;;;10.43;9.50;;;;;;;;;;4968713;28;20587;-43
2021/04/21 12:14:35;;;;;;;10.23;9.33;;;;;;;;;;4968444;28;20610;-43
2021/04/21 12:17:08;;;;;;;10.77;9.68;;;;;;;;;;4967950;28;20295;-42
2021/04/21 12:19:33;;;;;;;10.50;9.63;;;;;;;;;;4968484;28;20259;-43
2021/04/21 12:21:58;;;;;;;10.30;9.00;;;;;;;;;;4968538;28;20637;-42
2021/04/21 12:24:23;;;;;;;9.73;8.83;;;;;;;;;;4968225;28;20209;-43
2021/04/21 12:26:49;;;;;;;10.68;9.60;;;;;;;;;;4968570;28;20680;-43
2021/04/21 12:29:17;;;;;;;11.23;10.13;;;;;;;;;;4968578;28;20187;-43
2021/04/21 12:31:43;;;;;;;11.23;10.13;;;;;;;;;;4968093;28;20194;-42
2021/04/21 12:34:15;;;;;;;10.60;9.60;;;;;;;;;;4968277;28;21164;-43
2021/04/21 12:36:41;;;;;;;11.00;10.10;;;;;;;;;;4968498;28;20202;-43
2021/04/21 12:39:09;;;;;;;14.43;10.30;;;;;;;;;;4968203;28;20653;-43
2021/04/21 12:41:39;;;;;;;11.00;10.00;;;;;;;;;;4968498;28;20192;-43
2021/04/21 12:44:15;;;;;;;12.13;9.93;;;;;;;;;;4967694;28;20610;-43
2021/04/21 12:46:40;;;;;;;12.00;10.87;;;;;;;;;;4968431;28;21138;-43
2021/04/21 12:49:05;;;;;;;11.20;10.10;;;;;;;;;;4968241;28;20616;-43
2021/04/21 12:51:31;;;;;;;9.90;8.90;;;;;;;;;;4968264;28;20181;-44
2021/04/21 12:53:58;;;;;;;11.10;10.00;;;;;;;;;;4968017;28;20181;-44
2021/04/21 12:56:23;;;;;;;11.63;10.40;;;;;;;;;;4968369;28;20205;-44
2021/04/21 12:58:48;;;;;;;11.05;10.07;;;;;;;;;;4967811;28;20688;-43
2021/04/21 13:01:19;;;;;;;10.37;9.37;;;;;;;;;;4969857;28;20178;-43
2021/04/21 13:03:54;;;;;;;10.77;9.77;;;;;;;;;;4971517;28;20208;-42
2021/04/21 13:06:40;;;;;;;11.33;10.00;;;;;;;;;;4971927;28;21132;-43
2021/04/21 13:09:12;;;;;;;10.50;9.43;;;;;;;;;;4971394;28;21172;-43
2021/04/21 13:11:39;;;;;;;10.10;9.10;;;;;;;;;;4971485;28;20594;-43
2021/04/21 13:14:05;;;;;;;10.97;9.03;;;;;;;;;;4971064;28;21190;-43
2021/04/21 13:16:34;;;;;;;10.00;9.00;;;;;;;;;;4971644;28;20604;-43
2021/04/21 13:19:17;;;;;;;10.07;9.07;;;;;;;;;;4971275;28;21169;-43
2021/04/21 13:21:42;;;;;;;11.50;10.50;;;;;;;;;;4971115;28;20655;-43
2021/04/21 13:24:07;;;;;;;9.52;8.63;;;;;;;;;;4970979;28;20717;-43
2021/04/21 13:26:32;;;;;;;9.13;8.40;;;;;;;;;;4971331;28;20187;-43
2021/04/21 13:28:59;;;;;;;9.27;8.30;;;;;;;;;;4971258;28;20457;-43
2021/04/21 13:31:26;;;;;;;9.07;8.07;;;;;;;;;;4971311;28;20302;-43
2021/04/21 13:33:51;;;;;;;13.47;8.80;;;;;;;;;;4970828;28;20617;-43
2021/04/21 13:36:17;;;;;;;9.47;8.60;;;;;;;;;;4971064;28;20619;-43
2021/04/21 13:38:43;;;;;;;10.27;9.37;;;;;;;;;;4971286;28;20631;-43
2021/04/21 13:41:09;;;;;;;10.13;9.10;;;;;;;;;;4970717;28;20219;-43
2021/04/21 13:43:34;;;;;;;10.57;9.67;;;;;;;;;;4970411;28;20586;-42
2021/04/21 13:46:00;;;;;;;9.70;8.70;;;;;;;;;;4970971;28;20579;-42
2021/04/21 13:48:25;;;;;;;9.20;8.50;;;;;;;;;;4970991;28;20182;-42
2021/04/21 13:50:50;;;;;;;9.63;8.70;;;;;;;;;;4970551;28;20612;-43
2021/04/21 13:53:16;;;;;;;8.87;8.07;;;;;;;;;;4970358;28;20181;-42
2021/04/21 13:55:41;;;;;;;9.40;8.53;;;;;;;;;;4970958;28;20756;-42
2021/04/21 13:58:06;;;;;;;8.93;8.23;;;;;;;;;;4970707;28;20205;-42
2021/04/21 14:00:32;;;;;;;8.27;7.57;;;;;;;;;;4964347;28;20679;-42
2021/04/21 14:02:57;;;;;;;10.60;9.70;;;;;;;;;;4968392;28;20575;-43
2021/04/21 14:05:22;;;;;;;9.07;8.37;;;;;;;;;;4969662;28;20191;-43
2021/04/21 14:07:48;;;;;;;10.30;9.37;;;;;;;;;;4969082;28;20181;-42
2021/04/21 14:10:14;;;;;;;8.60;7.70;;;;;;;;;;4969455;28;20273;-43
2021/04/21 14:12:39;;;;;;;9.77;8.87;;;;;;;;;;4968517;28;20230;-43
2021/04/21 14:15:06;;;;;;;8.40;7.63;;;;;;;;;;4969984;28;21388;-43
2021/04/21 14:17:31;;;;;;;8.87;7.60;;;;;;;;;;4967780;28;20203;-43
2021/04/21 14:19:56;;;;;;;9.27;6.90;;;;;;;;;;4969778;28;21126;-42
2021/04/21 14:22:21;;;;;;;9.30;8.50;;;;;;;;;;4970063;28;20180;-42
2021/04/21 14:24:46;;;;;;;9.45;8.35;;;;;;;;;;4969827;28;20226;-42
2021/04/21 14:27:12;;;;;;;9.90;9.03;;;;;;;;;;4970429;28;20196;-42
2021/04/21 14:29:37;;;;;;;10.07;9.07;;;;;;;;;;4968847;28;20203;-43
2021/04/21 14:32:02;;;;;;;8.15;7.40;;;;;;;;;;4969752;28;20577;-42
2021/04/21 14:34:27;;;;;;;9.53;8.73;;;;;;;;;;4969672;28;20706;-43
2021/04/21 14:36:52;;;;;;;8.40;7.67;;;;;;;;;;4969656;28;20599;-44